Tiempo atmosférico en la estación meteorológica de Haría, Las Palmas (277 m.)



Fecha
DESCASC
Temp. máxima en grados centígrados (hora)
DESCASC
Temp. mínima en grados centígrados (hora)
DESCASC
Temp. media en grados centígrados
DESCASC
Racha de viento máxima en m/sg (hora)
DESCASC
Velocidad máxima media en intervalos de 10 minutos(hora)
DESCASC
Precipitaciones diarias en mm
DESCASC
Precipitaciones de 00:00 a 06:00 en mm
DESCASC
Precipitaciones de 06:00 a 12:00 en mm
DESCASC
Precipitaciones de 12:00 a 18:00 en mm
DESCASC
Precipitaciones de 18:00 a 24:00 en mm
DESCASC
24-05-2020 28.8 (17:20) 17.3 (05:10) 23 13.89 (00:10) 8.89 (00:10) 0 0 0 0 0
23-05-2020 25.3 (17:10) 17.3 (04:50) 21.3 14.72 (00:30) 8.61 (02:00) 0 0 0 0 0
22-05-2020 21.5 (15:10) 15.6 (02:50) 18.6 14.17 (22:50) 8.89 (23:00) 0 0 0 0 0
21-05-2020 21.1 (15:50) 15.6 (00:00) 18.4 13.33 (20:10) 9.17 (20:10) 0 0 0 0 0
20-05-2020 21.6 (15:50) 16.5 (00:00) 19.1 11.39 (15:00) 8.06 (15:00) 0 0 0 0 0
19-05-2020 22.8 (13:40) 16.6 (00:00) 19.7 14.17 (20:50) 10.28 (20:50) 0 0 0 0 0
18-05-2020 21.6 (14:50) 16 (00:00) 18.8 10.56 (16:30) 7.5 (16:00) 0 0 0 0 0
17-05-2020 21.2 (14:30) 15.8 (00:00) 18.5 12.22 (17:20) 8.33 (16:50) 0 0 0 0 0
16-05-2020 20.7 (16:20) 15.7 (00:00) 18.2 12.78 (15:40) 8.33 (14:10) 0 0 0 0 0
15-05-2020 19.8 (16:10) 14.8 (00:00) 17.3 16.94 (05:10) 10.28 (16:40) 3.2 0 3.2 0 0
14-05-2020 19.7 (11:40) 15.1 (00:00) 17.4 20.28 (18:00) 10.83 (18:10) 1.4 1.2 0.2 0 0
13-05-2020 19.9 (13:00) 16.3 (00:00) 18.1 16.67 (13:30) 9.17 (13:30) 0.6 0 0 0.4 0.2
12-05-2020 20.5 (14:40) 16.3 (00:00) 18.4 19.17 (16:50) 9.44 (16:00) 1 0 0 0.4 0.6
11-05-2020 22 (13:20) 16.6 (00:00) 19.3 15.56 (21:00) 9.44 (21:00) 0 0 0 0 0
10-05-2020 21 (13:00) 16 (00:00) 18.5 12.5 (20:20) 8.61 (00:20) 0 0 0 0 0
09-05-2020 21.6 (15:50) 15.6 (00:00) 18.6 15 (19:20) 8.06 (19:30) 0 0 0 0 0
08-05-2020 21.3 (13:20) 15.5 (00:00) 18.4 10.28 (15:20) 6.67 (13:40) 0 0 0 0 0
07-05-2020 22.1 (14:50) 15.1 (00:00) 18.6 11.67 (12:50) 7.5 (18:10) 0 0 0 0 0
06-05-2020 21 (16:10) 15.7 (00:00) 18.3 9.72 (10:40) 6.67 (10:40) 0 0 0 0 0
05-05-2020 22.7 (14:20) 14.6 (00:00) 18.7 11.11 (18:30) 8.06 (18:30) 0 0 0 0 0
04-05-2020 22.4 (16:40) 16.3 (00:00) 19.3 10.83 (18:10) 7.5 (17:10) 0 0 0 0 0
03-05-2020 23.1 (13:30) 14.6 (00:00) 18.9 13.61 (23:20) 8.89 (08:30) 0 0 0 0 0
02-05-2020 22.5 (12:50) 15.2 (00:00) 18.8 9.17 (00:10) 5 (13:10) 0 0 0 0 0
01-05-2020 21.3 (16:00) 16.1 (00:00) 18.7 11.11 (10:20) 7.78 (10:20) 0 0 0 0 0
30-04-2020 21.4 (15:30) 15.2 (00:00) 18.3 14.17 (12:10) 9.44 (12:40) 0 0 0 0 0
29-04-2020 20.6 (14:20) 14.8 (00:00) 17.7 13.06 (09:50) 7.22 (21:20) 0 0 0 0 0
28-04-2020 21 (14:40) 15.3 (00:00) 18.2 10 (10:20) 7.5 (17:20) 0 0 0 0 0

Gráficas

Temp. máximas Temp. mínimas Temp. medias Precipitaciones Rachas de viento máximas Velocidades máximas media en intervalos de 10 minutos

Datos horarios

Fecha y hora oficial Temperatura (ºC) Velocidad del viento (km/h) Dirección del viento Racha (km/h) Dirección de racha Precipitación (mm) Presión (hPa) Tendencia (hPa) Humedad (%)
2020-05-27 23:00:00 -- -- -- -- -- -- -- -- --
2020-05-27 22:00:00 -- -- -- -- -- -- -- -- --
2020-05-27 21:00:00 20.3 31 Oeste 45 Noroeste 0 -- -- 59
2020-05-27 20:00:00 21.2 23 Noroeste 38 Oeste 0 -- -- 66
2020-05-27 19:00:00 23.3 22 Noroeste 30 Oeste 0 -- -- 60
2020-05-27 18:00:00 23.5 23 Oeste 31 Oeste 0 -- -- 59
2020-05-27 17:00:00 25.9 21 Oeste 28 Oeste 0 -- -- 51
2020-05-27 16:00:00 29.9 9 Norte 41 Noroeste 0 -- -- 27
2020-05-27 15:00:00 27.7 13 Oeste 30 Nordeste 0 -- -- 41
2020-05-27 14:00:00 26.2 21 Nordeste 28 Nordeste 0 -- -- 53
2020-05-27 13:00:00 25.4 14 Nordeste 24 Nordeste 0 -- -- 57
2020-05-27 12:00:00 24.8 18 Nordeste 28 Nordeste 0 -- -- 58
2020-05-27 11:00:00 23.9 12 Sur 26 Sudeste 0 -- -- 59
2020-05-27 10:00:00 24.9 9 Sudeste 16 Sudeste 0 -- -- 49
2020-05-27 09:00:00 23.8 4 Sudeste 10 Sudeste 0 -- -- 58
2020-05-27 08:00:00 21.9 2 Sudeste 9 Noroeste 0 -- -- 61
2020-05-27 07:00:00 18.7 5 Noroeste 14 Noroeste 0 -- -- 67
2020-05-27 06:00:00 16.3 8 Noroeste 15 Noroeste 0 -- -- 88
2020-05-27 05:00:00 15.6 4 Noroeste 15 Norte 0 -- -- 92
2020-05-27 04:00:00 16.3 5 Norte 14 Nordeste 0 -- -- 91
2020-05-27 03:00:00 16.4 8 Nordeste 15 Norte 0 -- -- 87
2020-05-27 02:00:00 17.2 4 Nordeste 13 Norte 0 -- -- 77
2020-05-27 01:00:00 19.5 4 Nordeste 10 Noroeste 0 -- -- 65
2020-05-27 00:00:00 22.5 0 Calma 5 Norte 0 -- -- 30
2020-05-26 23:00:00 21.9 0 Calma 5 Nordeste 0 -- -- 35
2020-05-26 22:00:00 23.4 3 Este 20 Norte 0 -- -- 32
2020-05-26 21:00:00 22.3 7 Noroeste 23 Oeste 0 -- -- 52
2020-05-26 20:00:00 21.9 17 Oeste 29 Oeste 0 -- -- 65
2020-05-26 19:00:00 23 24 Oeste 32 Oeste 0 -- -- 64
2020-05-26 18:00:00 25.7 20 Oeste 31 Oeste 0 -- -- 53
2020-05-26 17:00:00 27.3 19 Oeste 28 Oeste 0 -- -- 48
2020-05-26 16:00:00 27.9 10 Sur 21 Sudeste 0 -- -- 47
2020-05-26 15:00:00 27.2 10 Nordeste 24 Sudeste 0 -- -- 42
2020-05-26 14:00:00 25.5 15 Este 27 Este 0 -- -- 56
2020-05-26 13:00:00 25.6 15 Sudeste 27 Nordeste 0 -- -- 56
2020-05-26 12:00:00 25 12 Este 24 Sudeste 0 -- -- 58
2020-05-26 11:00:00 25.7 13 Sudeste 21 Nordeste 0 -- -- 53
2020-05-26 10:00:00 26.6 9 Nordeste 16 Nordeste 0 -- -- 34
2020-05-26 09:00:00 24.9 9 Norte 16 Norte 0 -- -- 34
2020-05-26 08:00:00 22.3 6 Noroeste 11 Noroeste 0 -- -- 38
2020-05-26 07:00:00 20.5 6 Noroeste 12 Noroeste 0 -- -- 44
2020-05-26 06:00:00 19.2 5 Oeste 13 Noroeste 0 -- -- 58
2020-05-26 05:00:00 20.5 6 Norte 16 Oeste 0 -- -- 57
2020-05-26 04:00:00 19.8 8 Noroeste 14 Noroeste 0 -- -- 66
2020-05-26 03:00:00 20.1 9 Noroeste 14 Norte 0 -- -- 66
2020-05-26 02:00:00 20.7 5 Noroeste 14 Norte 0 -- -- 61
2020-05-26 01:00:00 21.4 5 Norte 13 Nordeste 0 -- -- 62
2020-05-26 00:00:00 24.2 4 Norte 17 Norte 0 -- -- 38
2020-05-25 23:00:00 25.2 4 Noroeste 25 Norte 0 -- -- 30
2020-05-25 22:00:00 26.7 15 Norte 25 Norte 0 -- -- 25
2020-05-25 21:00:00 26.7 18 Norte 27 Norte 0 -- -- 25
2020-05-25 20:00:00 26.5 15 Norte 24 Norte 0 -- -- 30
2020-05-25 19:00:00 29.4 14 Norte 26 Norte 0 -- -- 26
2020-05-25 18:00:00 29.8 18 Nordeste 27 Nordeste 0 -- -- 27
2020-05-25 17:00:00 28.7 10 Sudeste 22 Nordeste 0 -- -- 39
2020-05-25 16:00:00 27 14 Sudeste 23 Este 0 -- -- 49
2020-05-25 15:00:00 26.9 13 Este 29 Norte 0 -- -- 52
2020-05-25 14:00:00 27.8 22 Nordeste 33 Nordeste 0 -- -- 48
2020-05-25 13:00:00 29.3 25 Nordeste 32 Nordeste 0 -- -- 34
2020-05-25 12:00:00 30.7 12 Norte 26 Nordeste 0 -- -- 24
2020-05-25 11:00:00 29.5 10 Este 21 Sudeste 0 -- -- 32
2020-05-25 10:00:00 27.5 4 Noroeste 10 Noroeste 0 -- -- 40
2020-05-25 09:00:00 23 9 Noroeste 16 Noroeste 0 -- -- 66
2020-05-25 08:00:00 19 12 Noroeste 18 Oeste 0 -- -- 84
2020-05-25 07:00:00 18.1 15 Noroeste 19 Noroeste 0 -- -- 83
2020-05-25 06:00:00 17.5 12 Noroeste 14 Noroeste 0 -- -- 80
2020-05-25 05:00:00 17.8 11 Noroeste 13 Noroeste 0 -- -- 72
2020-05-25 04:00:00 17.6 6 Noroeste 10 Noroeste 0 -- -- 77
2020-05-25 03:00:00 17.8 9 Noroeste 17 Noroeste 0 -- -- 90
2020-05-25 02:00:00 18 10 Noroeste 14 Noroeste 0 -- -- 93
2020-05-25 01:00:00 18.5 8 Norte 17 Norte 0 -- -- 92
2020-05-25 00:00:00 18.5 11 Nordeste 23 Norte 0 -- -- 88
2020-05-24 23:00:00 21.3 7 Norte 23 Noroeste 0 -- -- 70
2020-05-24 22:00:00 22.6 14 Noroeste 29 Oeste 0 -- -- 61
2020-05-24 21:00:00 23.9 18 Noroeste 30 Noroeste 0 -- -- 55
2020-05-24 20:00:00 26.2 6 Oeste 24 Norte 0 -- -- 50
2020-05-24 19:00:00 27.5 18 Norte 26 Norte 0 -- -- 41
2020-05-24 18:00:00 28 6 Sudeste 24 Nordeste 0 -- -- 51
2020-05-24 17:00:00 27.6 15 Nordeste 24 Nordeste 0 -- -- 49
2020-05-24 16:00:00 25.6 11 Nordeste 21 Nordeste 0 -- -- 59
2020-05-24 15:00:00 25.2 11 Nordeste 20 Nordeste 0 -- -- 63
2020-05-24 14:00:00 24.2 10 Nordeste 23 Nordeste 0 -- -- 68
2020-05-24 13:00:00 23.7 14 Nordeste 26 Nordeste 0 -- -- 70
2020-05-24 12:00:00 23 17 Nordeste 27 Nordeste 0 -- -- 72
2020-05-24 11:00:00 22.8 14 Norte 28 Norte 0 -- -- 72
2020-05-24 10:00:00 21.3 17 Norte 35 Norte 0 -- -- 78
2020-05-24 09:00:00 20.4 18 Norte 30 Norte 0 -- -- 80
2020-05-24 08:00:00 18.8 20 Norte 32 Norte 0 -- -- 85
2020-05-24 07:00:00 18.3 24 Norte 33 Norte 0 -- -- 81
2020-05-24 06:00:00 18.1 22 Norte 32 Norte 0 -- -- 82
2020-05-24 05:00:00 17.4 14 Noroeste 28 Noroeste 0 -- -- 90
2020-05-24 04:00:00 17.8 15 Noroeste 31 Norte 0 -- -- 86
2020-05-24 03:00:00 19.2 22 Norte 40 Norte 0 -- -- 71
2020-05-24 02:00:00 19.9 26 Norte 39 Norte 0 -- -- 65
2020-05-24 01:00:00 21.3 26 Norte 50 Norte 0 -- -- 53
2020-05-24 00:00:00 21.5 31 Norte 48 Norte 0 -- -- 55
2020-05-23 23:00:00 22.5 28 Norte 49 Norte 0 -- -- 53
2020-05-23 22:00:00 22.6 19 Norte 44 Norte 0 -- -- 54
2020-05-23 21:00:00 22.3 18 Norte 41 Norte 0 -- -- 55
2020-05-23 20:00:00 23.6 14 Nordeste 36 Norte 0 -- -- 52
2020-05-23 19:00:00 23.2 24 Norte 37 Norte 0 -- -- 61
2020-05-23 18:00:00 24.1 22 Norte 42 Norte 0 -- -- 58
2020-05-23 17:00:00 25 27 Norte 36 Norte 0 -- -- 55
2020-05-23 16:00:00 23 17 Nordeste 31 Nordeste 0 -- -- 68
2020-05-23 15:00:00 23.2 17 Nordeste 32 Nordeste 0 -- -- 69
2020-05-23 14:00:00 22.8 18 Nordeste 31 Nordeste 0 -- -- 71
2020-05-23 13:00:00 22.8 17 Nordeste 32 Nordeste 0 -- -- 72
2020-05-23 12:00:00 22.2 17 Nordeste 30 Nordeste 0 -- -- 74
2020-05-23 11:00:00 21.5 15 Nordeste 30 Nordeste 0 -- -- 79
2020-05-23 10:00:00 20.2 18 Nordeste 34 Nordeste 0 -- -- 88
2020-05-23 09:00:00 19 15 Nordeste 28 Norte 0 -- -- 94
2020-05-23 08:00:00 17.8 13 Norte 33 Nordeste 0 -- -- 95
2020-05-23 07:00:00 17.3 14 Norte 28 Norte 0 -- -- 94
2020-05-23 06:00:00 17.3 13 Norte 33 Norte 0 -- -- 93
2020-05-23 05:00:00 17.3 15 Norte 31 Norte 0 -- -- 92
2020-05-23 04:00:00 17.6 14 Norte 39 Norte 0 -- -- 88
2020-05-23 03:00:00 18.4 24 Norte 53 Norte 0 -- -- 78
2020-05-23 02:00:00 19.7 31 Norte 50 Norte 0 -- -- 67
2020-05-23 01:00:00 19.2 25 Norte 53 Norte 0 -- -- 68
2020-05-23 00:00:00 20.3 24 Norte 51 Norte 0 -- -- 56
2020-05-22 23:00:00 20.6 32 Noroeste 51 Norte 0 -- -- 53
2020-05-22 22:00:00 20 26 Noroeste 45 Noroeste 0 -- -- 59
2020-05-22 21:00:00 19.8 21 Norte 40 Norte 0 -- -- 60
2020-05-22 20:00:00 20.2 19 Norte 32 Norte 0 -- -- 65
2020-05-22 19:00:00 20.6 12 Norte 30 Nordeste 0 -- -- 72
2020-05-22 18:00:00 20.8 19 Norte 34 Norte 0 -- -- 75
2020-05-22 17:00:00 21.3 20 Norte 39 Norte 0 -- -- 74
2020-05-22 16:00:00 21.5 21 Nordeste 34 Nordeste 0 -- -- 72
2020-05-22 15:00:00 21.4 22 Nordeste 40 Nordeste 0 -- -- 73
2020-05-22 14:00:00 21.2 23 Norte 41 Norte 0 -- -- 73
2020-05-22 13:00:00 20.8 22 Norte 41 Norte 0 -- -- 75
2020-05-22 12:00:00 19.5 25 Norte 37 Norte 0 -- -- 80
2020-05-22 11:00:00 18.7 23 Norte 37 Norte 0 -- -- 83
2020-05-22 10:00:00 17.7 22 Norte 38 Norte 0 -- -- 88
2020-05-22 09:00:00 17.2 18 Norte 33 Norte 0 -- -- 91
2020-05-22 08:00:00 16.4 19 Norte 34 Norte 0 -- -- 92
2020-05-22 07:00:00 16 23 Norte 39 Norte 0 -- -- 90
2020-05-22 06:00:00 16 24 Noroeste 39 Noroeste 0 -- -- 86
2020-05-22 05:00:00 16.3 27 Noroeste 41 Noroeste 0 -- -- 82
2020-05-22 04:00:00 16.1 23 Noroeste 40 Norte 0 -- -- 86
2020-05-22 03:00:00 15.7 23 Norte 33 Norte 0 -- -- 92
2020-05-22 02:00:00 15.9 15 Norte 30 Norte 0 -- -- 91
2020-05-22 01:00:00 16 18 Norte 36 Norte 0 -- -- 90
2020-05-22 00:00:00 16.2 21 Norte 34 Norte 0 -- -- 89
2020-05-21 23:00:00 16.4 18 Norte 37 Norte 0 -- -- 89
2020-05-21 22:00:00 16.4 17 Norte 39 Norte 0 -- -- 87
2020-05-21 21:00:00 16.5 26 Noroeste 48 Noroeste 0 -- -- 87
2020-05-21 20:00:00 17.3 30 Noroeste 43 Noroeste 0 -- -- 82
2020-05-21 19:00:00 18.5 27 Noroeste 45 Noroeste 0 -- -- 77
2020-05-21 18:00:00 18.9 25 Noroeste 47 Noroeste 0 -- -- 76
2020-05-21 17:00:00 19.7 29 Noroeste 41 Noroeste 0 -- -- 72
2020-05-21 16:00:00 21 27 Norte 40 Norte 0 -- -- 67
2020-05-21 15:00:00 20.7 22 Norte 41 Norte 0 -- -- 69
2020-05-21 14:00:00 20.6 24 Norte 36 Norte 0 -- -- 69
2020-05-21 13:00:00 20.2 23 Norte 34 Norte 0 -- -- 73
2020-05-21 12:00:00 18.6 21 Norte 32 Norte 0 -- -- 80
2020-05-21 11:00:00 17.7 20 Norte 33 Norte 0 -- -- 83
2020-05-21 10:00:00 17.5 21 Norte 33 Norte 0 -- -- 84
2020-05-21 09:00:00 16.9 19 Norte 35 Norte 0 -- -- 88
2020-05-21 08:00:00 16.1 21 Norte 35 Norte 0 -- -- 90
2020-05-21 07:00:00 15.7 24 Norte 39 Noroeste 0 -- -- 91
2020-05-21 06:00:00 15.7 27 Noroeste 40 Noroeste 0 -- -- 90
2020-05-21 05:00:00 15.8 28 Noroeste 43 Noroeste 0 -- -- 91
2020-05-21 04:00:00 15.9 27 Noroeste 40 Norte 0 -- -- 90
2020-05-21 03:00:00 16.1 21 Norte 34 Norte 0 -- -- 90
2020-05-21 02:00:00 16.1 17 Norte 29 Norte 0 -- -- 92
2020-05-21 01:00:00 16.2 16 Norte 26 Norte 0 -- -- 91
2020-05-21 00:00:00 16.5 13 Norte 31 Norte 0 -- -- 88
2020-05-20 23:00:00 17.1 22 Norte 35 Norte 0 -- -- 80
2020-05-20 22:00:00 17 24 Norte 36 Norte 0 -- -- 84
2020-05-20 21:00:00 17.4 19 Norte 33 Norte 0 -- -- 85
2020-05-20 20:00:00 18.4 18 Norte 33 Norte 0 -- -- 81
2020-05-20 19:00:00 19.4 22 Norte 36 Norte 0 -- -- 77
2020-05-20 18:00:00 20.3 26 Norte 41 Norte 0 -- -- 74
2020-05-20 17:00:00 21.3 22 Norte 41 Norte 0 -- -- 71
2020-05-20 16:00:00 21.5 27 Norte 40 Norte 0 -- -- 71
2020-05-20 15:00:00 21.2 29 Norte 41 Norte 0 -- -- 72
2020-05-20 14:00:00 21 25 Norte 39 Norte 0 -- -- 74
2020-05-20 13:00:00 20.9 24 Norte 36 Norte 0 -- -- 75
2020-05-20 12:00:00 20.5 18 Norte 36 Nordeste 0 -- -- 78
2020-05-20 11:00:00 19.6 25 Norte 39 Norte 0 -- -- 80
2020-05-20 10:00:00 19.1 21 Norte 38 Norte 0 -- -- 83
2020-05-20 09:00:00 17.9 26 Norte 38 Norte 0 -- -- 89
2020-05-20 08:00:00 17.2 21 Norte 34 Norte 0 -- -- 92
2020-05-20 07:00:00 16.8 14 Norte 28 Norte 0 -- -- 92
2020-05-20 06:00:00 17.2 20 Norte 33 Noroeste 0 -- -- 93
2020-05-20 05:00:00 17.3 18 Noroeste 34 Norte 0 -- -- 93
2020-05-20 04:00:00 17.4 20 Noroeste 28 Noroeste 0 -- -- 93
2020-05-20 03:00:00 17.2 17 Noroeste 30 Norte 0 -- -- 92
2020-05-20 02:00:00 17.4 13 Noroeste 20 Noroeste 0 -- -- 92
2020-05-20 01:00:00 17.1 5 Noroeste 18 Noroeste 0 -- -- 90
2020-05-20 00:00:00 17.6 5 Noroeste 32 Noroeste 0 -- -- 89
2020-05-19 23:00:00 18.2 24 Noroeste 34 Oeste 0 -- -- 83
2020-05-19 22:00:00 18.1 22 Noroeste 48 Noroeste 0 -- -- 88
2020-05-19 21:00:00 18 37 Noroeste 51 Oeste 0 -- -- 90
2020-05-19 20:00:00 18.4 35 Oeste 50 Oeste 0 -- -- 86
2020-05-19 19:00:00 19.7 32 Noroeste 46 Oeste 0 -- -- 82
2020-05-19 18:00:00 20.8 31 Oeste 44 Oeste 0 -- -- 78
2020-05-19 17:00:00 21.4 30 Oeste 41 Oeste 0 -- -- 77
2020-05-19 16:00:00 21.9 27 Oeste 41 Oeste 0 -- -- 76
2020-05-19 15:00:00 22 26 Noroeste 36 Noroeste 0 -- -- 78
2020-05-19 14:00:00 22.7 23 Oeste 33 Oeste 0 -- -- 72
2020-05-19 13:00:00 22.4 22 Oeste 37 Oeste 0 -- -- 75
2020-05-19 12:00:00 21.4 28 Oeste 39 Oeste 0 -- -- 79
2020-05-19 11:00:00 20.6 30 Oeste 40 Oeste 0 -- -- 82
2020-05-19 10:00:00 20.4 27 Oeste 45 Oeste 0 -- -- 80
2020-05-19 09:00:00 19.4 25 Oeste 37 Oeste 0 -- -- 84
2020-05-19 08:00:00 17.4 28 Oeste 39 Oeste 0 -- -- 93
2020-05-19 07:00:00 16.7 25 Oeste 37 Oeste 0 -- -- 95
2020-05-19 06:00:00 16.7 27 Oeste 40 Oeste 0 -- -- 95
2020-05-19 05:00:00 16.7 26 Oeste 34 Oeste 0 -- -- 95
2020-05-19 04:00:00 16.9 24 Oeste 32 Oeste 0 -- -- 93
2020-05-19 03:00:00 17.2 16 Oeste 24 Norte 0 -- -- 87
2020-05-19 02:00:00 17.5 10 Noroeste 22 Norte 0 -- -- 90
2020-05-19 01:00:00 17.1 14 Noroeste 20 Norte 0 -- -- 94
2020-05-19 00:00:00 17.3 9 Norte 19 Norte 0 -- -- 93
2020-05-18 23:00:00 17.6 10 Norte 22 Norte 0 -- -- 92
2020-05-18 22:00:00 17.6 7 Norte 25 Norte 0 -- -- 90
2020-05-18 21:00:00 18 18 Norte 30 Norte 0 -- -- 86
2020-05-18 20:00:00 19.1 11 Norte 25 Norte 0 -- -- 83
2020-05-18 19:00:00 19.2 13 Nordeste 30 Norte 0 -- -- 83
2020-05-18 18:00:00 20 19 Norte 35 Nordeste 0 -- -- 78
2020-05-18 17:00:00 20.7 23 Norte 38 Norte 0 -- -- 74
2020-05-18 16:00:00 20.7 27 Nordeste 36 Nordeste 0 -- -- 74
2020-05-18 15:00:00 21.1 24 Nordeste 35 Norte 0 -- -- 71
2020-05-18 14:00:00 20.5 20 Norte 34 Norte 0 -- -- 75
2020-05-18 13:00:00 20.5 21 Norte 35 Norte 0 -- -- 73
2020-05-18 12:00:00 19.2 19 Norte 33 Norte 0 -- -- 79
2020-05-18 11:00:00 19.1 15 Norte 31 Norte 0 -- -- 79
2020-05-18 10:00:00 18.2 18 Norte 32 Norte 0 -- -- 82
2020-05-18 09:00:00 17.7 18 Norte 29 Norte 0 -- -- 86
2020-05-18 08:00:00 16.9 17 Norte 29 Norte 0 -- -- 87
2020-05-18 07:00:00 16.2 17 Norte 35 Noroeste 0 -- -- 88
2020-05-18 06:00:00 16 21 Noroeste 34 Noroeste 0 -- -- 87
2020-05-18 05:00:00 16 17 Norte 33 Norte 0 -- -- 87
2020-05-18 04:00:00 16.2 19 Norte 35 Norte 0 -- -- 87
2020-05-18 03:00:00 16.1 22 Norte 32 Norte 0 -- -- 85
2020-05-18 02:00:00 16.1 18 Norte 32 Norte 0 -- -- 85
2020-05-18 01:00:00 16.2 18 Norte 37 Norte 0 -- -- 84
2020-05-18 00:00:00 16.4 21 Norte 40 Norte 0 -- -- 83
2020-05-17 23:00:00 16.6 26 Norte 43 Norte 0 -- -- 83
2020-05-17 22:00:00 16.7 23 Norte 39 Norte 0 -- -- 82
2020-05-17 21:00:00 16.9 24 Norte 39 Norte 0 -- -- 81
2020-05-17 20:00:00 17.4 21 Norte 37 Norte 0 -- -- 76
2020-05-17 19:00:00 18.6 26 Norte 39 Norte 0 -- -- 73
2020-05-17 18:00:00 19.1 26 Norte 44 Norte 0 -- -- 71
2020-05-17 17:00:00 20.4 25 Norte 43 Norte 0 -- -- 64
2020-05-17 16:00:00 20.9 23 Norte 42 Norte 0 -- -- 62
2020-05-17 15:00:00 20.7 26 Norte 40 Norte 0 -- -- 62
2020-05-17 14:00:00 20.5 23 Norte 41 Nordeste 0 -- -- 61
2020-05-17 13:00:00 20.6 24 Norte 38 Nordeste 0 -- -- 65
2020-05-17 12:00:00 19.4 27 Norte 37 Norte 0 -- -- 69
2020-05-17 11:00:00 18.9 22 Norte 36 Norte 0 -- -- 73
2020-05-17 10:00:00 17.3 23 Norte 40 Norte 0 -- -- 79
2020-05-17 09:00:00 17.6 19 Norte 34 Norte 0 -- -- 79
2020-05-17 08:00:00 16.4 17 Norte 34 Norte 0 -- -- 84
2020-05-17 07:00:00 15.9 18 Norte 32 Norte 0 -- -- 85
2020-05-17 06:00:00 16 16 Norte 30 Norte 0 -- -- 86
2020-05-17 05:00:00 16 16 Norte 32 Norte 0 -- -- 86
2020-05-17 04:00:00 16.1 14 Norte 28 Norte 0 -- -- 86
2020-05-17 03:00:00 16 18 Norte 31 Norte 0 -- -- 84
2020-05-17 02:00:00 16.1 15 Norte 32 Norte 0 -- -- 83
2020-05-17 01:00:00 16 17 Norte 31 Norte 0 -- -- 82
2020-05-17 00:00:00 16 17 Norte 36 Norte 0 -- -- 81
2020-05-16 23:00:00 16.2 19 Norte 32 Norte 0 -- -- 79
2020-05-16 22:00:00 16.8 19 Norte 38 Norte 0 -- -- 81
2020-05-16 21:00:00 16.7 22 Noroeste 38 Noroeste 0 -- -- 80
2020-05-16 20:00:00 16.8 24 Norte 40 Noroeste 0 -- -- 76
2020-05-16 19:00:00 17.1 24 Norte 41 Noroeste 0 -- -- 74
2020-05-16 18:00:00 18 28 Noroeste 39 Norte 0 -- -- 66
2020-05-16 17:00:00 19.9 19 Norte 36 Norte 0 -- -- 63
2020-05-16 16:00:00 20.3 23 Norte 46 Noroeste 0 -- -- 59
2020-05-16 15:00:00 19.9 29 Noroeste 42 Noroeste 0 -- -- 63
2020-05-16 14:00:00 18.9 25 Noroeste 41 Noroeste 0 -- -- 65
2020-05-16 13:00:00 19 25 Noroeste 43 Norte 0 -- -- 62
2020-05-16 12:00:00 17.8 20 Noroeste 40 Noroeste 0 -- -- 68
2020-05-16 11:00:00 18.9 24 Noroeste 37 Noroeste 0 -- -- 65
2020-05-16 10:00:00 17.5 26 Noroeste 38 Noroeste 0 -- -- 68
2020-05-16 09:00:00 17.5 26 Noroeste 37 Noroeste 0 -- -- 69
2020-05-16 08:00:00 16.2 17 Noroeste 27 Norte 0 -- -- 74
2020-05-16 07:00:00 16 21 Noroeste 38 Noroeste 0 -- -- 75
2020-05-16 06:00:00 16 26 Noroeste 38 Noroeste 0 -- -- 79
2020-05-16 05:00:00 16 22 Noroeste 39 Noroeste 0 -- -- 80
2020-05-16 04:00:00 15.8 19 Noroeste 34 Noroeste 0 -- -- 79
2020-05-16 03:00:00 15.8 22 Noroeste 35 Noroeste 0 -- -- 80
2020-05-16 02:00:00 16.1 18 Noroeste 43 Norte 0 -- -- 77
2020-05-16 01:00:00 16.4 20 Noroeste 33 Noroeste 0 -- -- 80
2020-05-16 00:00:00 16.4 19 Norte 33 Noroeste 0 -- -- 80
2020-05-15 23:00:00 16.6 24 Noroeste 41 Norte 0 -- -- 81
2020-05-15 22:00:00 16.6 28 Noroeste 43 Noroeste 0 -- -- 80
2020-05-15 21:00:00 16.7 28 Noroeste 50 Noroeste 0 -- -- 81
2020-05-15 20:00:00 17.1 34 Noroeste 51 Noroeste 0 -- -- 76
2020-05-15 19:00:00 17.7 34 Noroeste 54 Noroeste 0 -- -- 75
2020-05-15 18:00:00 18.2 33 Noroeste 50 Noroeste 0 -- -- 71
2020-05-15 17:00:00 19.3 32 Noroeste 51 Noroeste 0 -- -- 65
2020-05-15 16:00:00 19.4 26 Noroeste 49 Noroeste 0 -- -- 69
2020-05-15 15:00:00 19.2 30 Noroeste 58 Noroeste 0 -- -- 70
2020-05-15 14:00:00 18.4 29 Noroeste 51 Norte 0 -- -- 76
2020-05-15 13:00:00 19.1 27 Noroeste 47 Noroeste 0 -- -- 75
2020-05-15 12:00:00 18.6 34 Noroeste 50 Noroeste 0 -- -- 77
2020-05-15 11:00:00 17.6 30 Noroeste 45 Noroeste 0 -- -- 87
2020-05-15 10:00:00 16.3 27 Noroeste 49 Noroeste 1.6 -- -- 89
2020-05-15 09:00:00 16.1 23 Noroeste 46 Noroeste 0 -- -- 87
2020-05-15 08:00:00 15.8 26 Noroeste 50 Noroeste 0 -- -- 88
2020-05-15 07:00:00 15.1 34 Noroeste 59 Noroeste 1.6 -- -- 90
2020-05-15 06:00:00 15.9 32 Noroeste 61 Noroeste 0 -- -- 79
2020-05-15 05:00:00 16.1 31 Noroeste 59 Noroeste 0 -- -- 75
2020-05-15 04:00:00 16 31 Noroeste 57 Noroeste 0 -- -- 74
2020-05-15 03:00:00 15.7 29 Noroeste 45 Noroeste 0 -- -- 72
2020-05-15 02:00:00 15.6 27 Noroeste 51 Noroeste 0 -- -- 68
2020-05-15 01:00:00 15.9 28 Noroeste 55 Oeste 0 -- -- 70
2020-05-15 00:00:00 15.7 27 Noroeste 58 Noroeste 0 -- -- 69
2020-05-14 23:00:00 16.1 37 Noroeste 57 Oeste 0 -- -- 67
2020-05-14 22:00:00 16.1 32 Noroeste 53 Noroeste 0 -- -- 70
2020-05-14 21:00:00 16.2 35 Noroeste 72 Noroeste 0 -- -- 72
2020-05-14 20:00:00 16.5 34 Noroeste 61 Noroeste 0 -- -- 71
2020-05-14 19:00:00 17.1 33 Noroeste 64 Noroeste 0 -- -- 68
2020-05-14 18:00:00 17.3 24 Noroeste 73 Noroeste 0 -- -- 66
2020-05-14 17:00:00 17.4 25 Noroeste 63 Noroeste 0 -- -- 69
2020-05-14 16:00:00 18.4 35 Noroeste 66 Noroeste 0 -- -- 65
2020-05-14 15:00:00 19.1 35 Noroeste 60 Oeste 0 -- -- 60
2020-05-14 14:00:00 18.9 30 Noroeste 63 Oeste 0 -- -- 61
2020-05-14 13:00:00 18.7 23 Noroeste 53 Noroeste 0 -- -- 68
2020-05-14 12:00:00 19.2 29 Oeste 54 Noroeste 0 -- -- 66
2020-05-14 11:00:00 19 30 Noroeste 60 Noroeste 0 -- -- 62
2020-05-14 10:00:00 17.9 31 Noroeste 64 Noroeste 0 -- -- 67
2020-05-14 09:00:00 17.2 32 Noroeste 58 Noroeste 0 -- -- 73
2020-05-14 08:00:00 16.4 35 Noroeste 58 Oeste 0 -- -- 80
2020-05-14 07:00:00 15.5 30 Noroeste 59 Noroeste 0.2 -- -- 82
2020-05-14 06:00:00 15.4 20 Noroeste 53 Noroeste 1.2 -- -- 89
2020-05-14 05:00:00 16.5 25 Noroeste 48 Noroeste 0 -- -- 75
2020-05-14 04:00:00 16.5 28 Noroeste 50 Noroeste 0 -- -- 71
2020-05-14 03:00:00 16.2 23 Noroeste 43 Noroeste 0 -- -- 71
2020-05-14 02:00:00 16.2 23 Noroeste 44 Oeste 0 -- -- 69
2020-05-14 01:00:00 16.3 18 Noroeste 51 Noroeste 0 -- -- 70
2020-05-14 00:00:00 16.4 30 Noroeste 55 Noroeste 0.2 -- -- 72
2020-05-13 23:00:00 16.5 23 Noroeste 44 Noroeste 0 -- -- 67
2020-05-13 22:00:00 16.6 17 Noroeste 42 Noroeste 0 -- -- 71
2020-05-13 21:00:00 16.5 17 Noroeste 37 Noroeste 0 -- -- 68
2020-05-13 20:00:00 17.2 23 Noroeste 44 Noroeste 0 -- -- 71
2020-05-13 19:00:00 17.5 27 Noroeste 42 Noroeste 0 -- -- 75
2020-05-13 18:00:00 18.4 29 Noroeste 58 Noroeste 0 -- -- 69
2020-05-13 17:00:00 18.3 26 Noroeste 59 Noroeste 0 -- -- 75
2020-05-13 16:00:00 17.8 19 Noroeste 54 Noroeste 0 -- -- 79
2020-05-13 15:00:00 16.9 28 Noroeste 56 Oeste 0.4 -- -- 87
2020-05-13 14:00:00 19.6 23 Noroeste 60 Noroeste 0 -- -- 72
2020-05-13 13:00:00 19.9 30 Oeste 48 Oeste 0 -- -- 74
2020-05-13 12:00:00 19.4 23 Oeste 40 Oeste 0 -- -- 76
2020-05-13 11:00:00 18.8 25 Noroeste 44 Oeste 0 -- -- 75
2020-05-13 10:00:00 17.5 29 Noroeste 53 Oeste 0 -- -- 80
2020-05-13 09:00:00 17.8 24 Noroeste 51 Noroeste 0 -- -- 81
2020-05-13 08:00:00 16.8 21 Noroeste 49 Noroeste 0 -- -- 84
2020-05-13 07:00:00 16.6 21 Noroeste 40 Oeste 0 -- -- 83
2020-05-13 06:00:00 16.7 17 Noroeste 45 Noroeste 0 -- -- 84
2020-05-13 05:00:00 16.7 13 Noroeste 27 Noroeste 0 -- -- 86
2020-05-13 04:00:00 16.6 16 Noroeste 31 Noroeste 0 -- -- 86
2020-05-13 03:00:00 16.5 26 Noroeste 39 Norte 0 -- -- 85
2020-05-13 02:00:00 16.7 14 Noroeste 29 Noroeste 0 -- -- 87
2020-05-13 01:00:00 16.4 16 Noroeste 36 Noroeste 0 -- -- 88
2020-05-13 00:00:00 16.3 19 Noroeste 57 Noroeste 0.4 -- -- 87
2020-05-12 23:00:00 17 23 Noroeste 44 Noroeste 0 -- -- 85
2020-05-12 22:00:00 16.9 29 Noroeste 46 Noroeste 0 -- -- 85
2020-05-12 21:00:00 17 31 Noroeste 49 Noroeste 0.2 -- -- 86
2020-05-12 20:00:00 17.7 29 Noroeste 53 Noroeste 0 -- -- 82
2020-05-12 19:00:00 18 17 Noroeste 48 Noroeste 0 -- -- 81
2020-05-12 18:00:00 17.9 27 Noroeste 51 Noroeste 0.2 -- -- 80
2020-05-12 17:00:00 17 26 Noroeste 69 Noroeste 0.2 -- -- 82
2020-05-12 16:00:00 19.5 34 Noroeste 53 Noroeste 0 -- -- 69
2020-05-12 15:00:00 19.9 25 Noroeste 54 Noroeste 0 -- -- 68
2020-05-12 14:00:00 19.3 23 Noroeste 41 Noroeste 0 -- -- 68
2020-05-12 13:00:00 19.8 24 Noroeste 45 Noroeste 0 -- -- 63
2020-05-12 12:00:00 20.2 22 Noroeste 50 Noroeste 0 -- -- 60
2020-05-12 11:00:00 19.1 24 Noroeste 45 Oeste 0 -- -- 67
2020-05-12 10:00:00 17.8 18 Noroeste 35 Oeste 0 -- -- 75
2020-05-12 09:00:00 17.4 16 Noroeste 34 Noroeste 0 -- -- 75
2020-05-12 08:00:00 17.1 21 Noroeste 36 Oeste 0 -- -- 76
2020-05-12 07:00:00 16.3 19 Noroeste 35 Noroeste 0 -- -- 78
2020-05-12 06:00:00 16.5 21 Noroeste 42 Noroeste 0 -- -- 77
2020-05-12 05:00:00 16.7 23 Noroeste 50 Noroeste 0 -- -- 77
2020-05-12 04:00:00 16.9 26 Noroeste 40 Noroeste 0 -- -- 77
2020-05-12 03:00:00 16.7 24 Noroeste 41 Noroeste 0 -- -- 76
2020-05-12 02:00:00 16.8 24 Noroeste 41 Oeste 0 -- -- 76
2020-05-12 01:00:00 16.8 26 Noroeste 45 Norte 0 -- -- 73
2020-05-12 00:00:00 16.6 23 Noroeste 42 Noroeste 0 -- -- 70
2020-05-11 23:00:00 17.2 24 Noroeste 53 Noroeste 0 -- -- 81
2020-05-11 22:00:00 17.5 28 Noroeste 51 Noroeste 0 -- -- 84
2020-05-11 21:00:00 18.1 34 Noroeste 56 Noroeste 0 -- -- 83
2020-05-11 20:00:00 18.5 26 Noroeste 46 Noroeste 0 -- -- 84
2020-05-11 19:00:00 18.9 21 Noroeste 49 Noroeste 0 -- -- 81
2020-05-11 18:00:00 19.5 24 Noroeste 50 Noroeste 0 -- -- 77
2020-05-11 17:00:00 20.5 30 Noroeste 46 Oeste 0 -- -- 73
2020-05-11 16:00:00 20.4 22 Oeste 37 Oeste 0 -- -- 74
2020-05-11 15:00:00 21.1 22 Oeste 36 Oeste 0 -- -- 75
2020-05-11 14:00:00 21.5 21 Oeste 33 Oeste 0 -- -- 70
2020-05-11 13:00:00 21.8 18 Noroeste 40 Noroeste 0 -- -- 67
2020-05-11 12:00:00 21.5 17 Noroeste 32 Noroeste 0 -- -- 68
2020-05-11 11:00:00 20.3 20 Noroeste 35 Noroeste 0 -- -- 71
2020-05-11 10:00:00 20.1 19 Noroeste 30 Noroeste 0 -- -- 69
2020-05-11 09:00:00 19.2 17 Noroeste 33 Noroeste 0 -- -- 69
2020-05-11 08:00:00 17.4 20 Noroeste 33 Noroeste 0 -- -- 83
2020-05-11 07:00:00 17.1 16 Noroeste 28 Norte 0 -- -- 82
2020-05-11 06:00:00 17 15 Noroeste 31 Oeste 0 -- -- 85
2020-05-11 05:00:00 17 14 Noroeste 31 Noroeste 0 -- -- 84
2020-05-11 04:00:00 16.7 14 Noroeste 25 Noroeste 0 -- -- 84
2020-05-11 03:00:00 16.7 12 Noroeste 27 Noroeste 0 -- -- 83
2020-05-11 02:00:00 16.9 17 Noroeste 32 Norte 0 -- -- 82
2020-05-11 01:00:00 17 18 Noroeste 33 Noroeste 0 -- -- 81
2020-05-11 00:00:00 17.1 17 Noroeste 37 Noroeste 0 -- -- 83
2020-05-10 23:00:00 17.1 19 Noroeste 31 Norte 0 -- -- 85
2020-05-10 22:00:00 17.2 18 Noroeste 41 Noroeste 0 -- -- 83
2020-05-10 21:00:00 17.7 28 Noroeste 45 Noroeste 0 -- -- 83
2020-05-10 20:00:00 18.4 27 Noroeste 45 Noroeste 0 -- -- 79
2020-05-10 19:00:00 19.2 27 Noroeste 42 Oeste 0 -- -- 78
2020-05-10 18:00:00 19.3 25 Noroeste 44 Norte 0 -- -- 75
2020-05-10 17:00:00 19.6 28 Noroeste 43 Noroeste 0 -- -- 77
2020-05-10 16:00:00 20.4 18 Noroeste 38 Noroeste 0 -- -- 75
2020-05-10 15:00:00 20.6 18 Noroeste 35 Oeste 0 -- -- 73
2020-05-10 14:00:00 20.5 19 Noroeste 42 Noroeste 0 -- -- 72
2020-05-10 13:00:00 21 19 Noroeste 37 Noroeste 0 -- -- 70
2020-05-10 12:00:00 20 24 Noroeste 38 Noroeste 0 -- -- 70
2020-05-10 11:00:00 18.9 21 Noroeste 39 Noroeste 0 -- -- 79
2020-05-10 10:00:00 19.4 22 Noroeste 38 Noroeste 0 -- -- 72
2020-05-10 09:00:00 18.5 22 Noroeste 43 Noroeste 0 -- -- 76
2020-05-10 08:00:00 17.3 26 Noroeste 34 Noroeste 0 -- -- 82
2020-05-10 07:00:00 16.2 22 Noroeste 33 Noroeste 0 -- -- 81
2020-05-10 06:00:00 16.3 22 Noroeste 32 Noroeste 0 -- -- 81
2020-05-10 05:00:00 16.6 22 Noroeste 36 Noroeste 0 -- -- 82
2020-05-10 04:00:00 16.4 16 Noroeste 28 Norte 0 -- -- 82
2020-05-10 03:00:00 16.8 18 Noroeste 32 Noroeste 0 -- -- 82
2020-05-10 02:00:00 17 25 Noroeste 37 Noroeste 0 -- -- 84
2020-05-10 01:00:00 17.2 24 Noroeste 45 Norte 0 -- -- 84
2020-05-10 00:00:00 17.5 20 Noroeste 30 Noroeste 0 -- -- 84
2020-05-09 23:00:00 17.5 20 Noroeste 37 Noroeste 0 -- -- 83
2020-05-09 22:00:00 17.6 26 Noroeste 39 Noroeste 0 -- -- 84
2020-05-09 21:00:00 17.9 28 Noroeste 40 Norte 0 -- -- 82
2020-05-09 20:00:00 18.5 26 Noroeste 54 Noroeste 0 -- -- 82
2020-05-09 19:00:00 19.1 26 Noroeste 41 Noroeste 0 -- -- 81
2020-05-09 18:00:00 19.7 26 Noroeste 40 Noroeste 0 -- -- 77
2020-05-09 17:00:00 20.8 22 Oeste 33 Noroeste 0 -- -- 73
2020-05-09 16:00:00 21.2 20 Noroeste 36 Noroeste 0 -- -- 72
2020-05-09 15:00:00 21.2 17 Oeste 35 Oeste 0 -- -- 72
2020-05-09 14:00:00 21.1 16 Noroeste 33 Oeste 0 -- -- 73
2020-05-09 13:00:00 20.9 17 Oeste 32 Noroeste 0 -- -- 71
2020-05-09 12:00:00 20.7 16 Noroeste 32 Noroeste 0 -- -- 71
2020-05-09 11:00:00 20.4 18 Noroeste 26 Oeste 0 -- -- 69
2020-05-09 10:00:00 19.2 17 Noroeste 30 Noroeste 0 -- -- 76
2020-05-09 09:00:00 18.5 17 Noroeste 30 Noroeste 0 -- -- 79
2020-05-09 08:00:00 17 15 Noroeste 31 Oeste 0 -- -- 85
2020-05-09 07:00:00 16.5 21 Noroeste 35 Noroeste 0 -- -- 85
2020-05-09 06:00:00 16.2 17 Noroeste 31 Noroeste 0 -- -- 86
2020-05-09 05:00:00 16.2 10 Noroeste 26 Noroeste 0 -- -- 87
2020-05-09 04:00:00 15.9 11 Noroeste 27 Noroeste 0 -- -- 86
2020-05-09 03:00:00 15.8 14 Noroeste 22 Noroeste 0 -- -- 87
2020-05-09 02:00:00 16.1 14 Noroeste 19 Noroeste 0 -- -- 86
2020-05-09 01:00:00 16.4 14 Noroeste 20 Noroeste 0 -- -- 85
2020-05-09 00:00:00 16.6 13 Noroeste 25 Noroeste 0 -- -- 83
2020-05-08 23:00:00 16.6 14 Noroeste 22 Noroeste 0 -- -- 82
2020-05-08 22:00:00 16.9 13 Noroeste 23 Norte 0 -- -- 80
2020-05-08 21:00:00 17.1 13 Noroeste 26 Noroeste 0 -- -- 76
2020-05-08 20:00:00 18.5 19 Noroeste 30 Noroeste 0 -- -- 72
2020-05-08 19:00:00 19.5 21 Noroeste 32 Noroeste 0 -- -- 70
2020-05-08 18:00:00 19.5 19 Norte 32 Norte 0 -- -- 69
2020-05-08 17:00:00 20 21 Norte 37 Noroeste 0 -- -- 66
2020-05-08 16:00:00 20.6 23 Noroeste 37 Noroeste 0 -- -- 64
2020-05-08 15:00:00 20.7 22 Noroeste 37 Noroeste 0 -- -- 65
2020-05-08 14:00:00 20.6 19 Noroeste 36 Noroeste 0 -- -- 65
2020-05-08 13:00:00 20.5 18 Noroeste 32 Noroeste 0 -- -- 66
2020-05-08 12:00:00 20.2 18 Noroeste 34 Noroeste 0 -- -- 67
2020-05-08 11:00:00 20 18 Noroeste 29 Norte 0 -- -- 71
2020-05-08 10:00:00 18.7 15 Noroeste 32 Norte 0 -- -- 75
2020-05-08 09:00:00 17.9 18 Noroeste 27 Noroeste 0 -- -- 81
2020-05-08 08:00:00 16.1 17 Noroeste 28 Noroeste 0 -- -- 85
2020-05-08 07:00:00 16 15 Noroeste 24 Noroeste 0 -- -- 87
2020-05-08 06:00:00 15.5 17 Noroeste 26 Noroeste 0 -- -- 86
2020-05-08 05:00:00 15.8 17 Noroeste 26 Noroeste 0 -- -- 85
2020-05-08 04:00:00 15.8 18 Noroeste 27 Noroeste 0 -- -- 85
2020-05-08 03:00:00 16 16 Noroeste 27 Noroeste 0 -- -- 85
2020-05-08 02:00:00 16.3 17 Noroeste 28 Noroeste 0 -- -- 84
2020-05-08 01:00:00 16.3 20 Noroeste 28 Noroeste 0 -- -- 83
2020-05-08 00:00:00 16.4 17 Noroeste 24 Noroeste 0 -- -- 82
2020-05-07 23:00:00 16.7 14 Norte 26 Noroeste 0 -- -- 82
2020-05-07 22:00:00 16.7 17 Noroeste 30 Noroeste 0 -- -- 80
2020-05-07 21:00:00 17.1 18 Noroeste 30 Noroeste 0 -- -- 76
2020-05-07 20:00:00 18.1 18 Noroeste 33 Noroeste 0 -- -- 71
2020-05-07 19:00:00 18.7 24 Noroeste 38 Noroeste 0 -- -- 69
2020-05-07 18:00:00 19.6 26 Noroeste 41 Norte 0 -- -- 66
2020-05-07 17:00:00 20.5 18 Noroeste 32 Noroeste 0 -- -- 63
2020-05-07 16:00:00 19.5 23 Noroeste 39 Norte 0 -- -- 66
2020-05-07 15:00:00 21.8 22 Norte 34 Norte 0 -- -- 55
2020-05-07 14:00:00 22 20 Norte 38 Norte 0 -- -- 57
2020-05-07 13:00:00 20.8 24 Norte 42 Noroeste 0 -- -- 59
2020-05-07 12:00:00 19.7 19 Norte 37 Noroeste 0 -- -- 63
2020-05-07 11:00:00 19.3 22 Noroeste 38 Noroeste 0 -- -- 66
2020-05-07 10:00:00 18.5 21 Noroeste 33 Norte 0 -- -- 72
2020-05-07 09:00:00 18 17 Noroeste 26 Noroeste 0 -- -- 77
2020-05-07 08:00:00 16.3 12 Noroeste 24 Noroeste 0 -- -- 87
2020-05-07 07:00:00 15.4 12 Noroeste 19 Noroeste 0 -- -- 87
2020-05-07 06:00:00 15.3 13 Noroeste 21 Noroeste 0 -- -- 88
2020-05-07 05:00:00 15.3 9 Noroeste 18 Noroeste 0 -- -- 87
2020-05-07 04:00:00 15.2 8 Noroeste 16 Norte 0 -- -- 86
2020-05-07 03:00:00 15.7 10 Norte 17 Norte 0 -- -- 85
2020-05-07 02:00:00 15.9 10 Norte 19 Norte 0 -- -- 83
2020-05-07 01:00:00 16.1 14 Norte 23 Norte 0 -- -- 81
2020-05-07 00:00:00 16.4 12 Norte 22 Norte 0 -- -- 81
2020-05-06 23:00:00 16.4 12 Norte 24 Noroeste 0 -- -- 81
2020-05-06 22:00:00 16.4 15 Norte 26 Norte 0 -- -- 78
2020-05-06 21:00:00 17.1 12 Norte 25 Norte 0 -- -- 76
2020-05-06 20:00:00 18 16 Norte 29 Noroeste 0 -- -- 71
2020-05-06 19:00:00 19.6 16 Norte 30 Noroeste 0 -- -- 61
2020-05-06 18:00:00 19.4 18 Noroeste 34 Norte 0 -- -- 64
2020-05-06 17:00:00 20.5 19 Norte 29 Norte 0 -- -- 58
2020-05-06 16:00:00 20.8 18 Norte 32 Nordeste 0 -- -- 58
2020-05-06 15:00:00 20.5 16 Nordeste 33 Norte 0 -- -- 62
2020-05-06 14:00:00 20.1 18 Norte 30 Norte 0 -- -- 62
2020-05-06 13:00:00 20.2 19 Nordeste 34 Nordeste 0 -- -- 62
2020-05-06 12:00:00 19.6 19 Nordeste 32 Norte 0 -- -- 65
2020-05-06 11:00:00 18.7 19 Nordeste 35 Norte 0 -- -- 68
2020-05-06 10:00:00 18.2 21 Norte 30 Nordeste 0 -- -- 69
2020-05-06 09:00:00 17.1 15 Norte 28 Norte 0 -- -- 74
2020-05-06 08:00:00 16.2 15 Norte 25 Norte 0 -- -- 79
2020-05-06 07:00:00 15.7 14 Noroeste 28 Norte 0 -- -- 79
2020-05-06 06:00:00 15.9 14 Norte 24 Norte 0 -- -- 79
2020-05-06 05:00:00 16.3 15 Norte 25 Norte 0 -- -- 82
2020-05-06 04:00:00 16.1 14 Norte 22 Norte 0 -- -- 77
2020-05-06 03:00:00 16.5 7 Norte 18 Norte 0 -- -- 76
2020-05-06 02:00:00 16.5 8 Norte 22 Norte 0 -- -- 75
2020-05-06 01:00:00 16.4 11 Norte 22 Norte 0 -- -- 76
2020-05-06 00:00:00 16.4 13 Norte 27 Norte 0 -- -- 78
2020-05-05 23:00:00 16.4 17 Norte 27 Norte 0 -- -- 78
2020-05-05 22:00:00 16.7 17 Norte 32 Norte 0 -- -- 76
2020-05-05 21:00:00 17 25 Noroeste 36 Noroeste 0 -- -- 75
2020-05-05 20:00:00 17.9 22 Noroeste 38 Noroeste 0 -- -- 73
2020-05-05 19:00:00 19.2 24 Noroeste 40 Noroeste 0 -- -- 65
2020-05-05 18:00:00 20.5 26 Noroeste 38 Noroeste 0 -- -- 59
2020-05-05 17:00:00 21.6 19 Norte 33 Norte 0 -- -- 54
2020-05-05 16:00:00 21.7 21 Norte 32 Noroeste 0 -- -- 54
2020-05-05 15:00:00 22.4 17 Norte 32 Norte 0 -- -- 51
2020-05-05 14:00:00 21.2 16 Norte 36 Norte 0 -- -- 58
2020-05-05 13:00:00 21.1 17 Nordeste 38 Nordeste 0 -- -- 60
2020-05-05 12:00:00 21.2 18 Nordeste 29 Nordeste 0 -- -- 62
2020-05-05 11:00:00 20.3 18 Nordeste 27 Nordeste 0 -- -- 60
2020-05-05 10:00:00 19.3 13 Norte 30 Noroeste 0 -- -- 67
2020-05-05 09:00:00 18.1 11 Noroeste 24 Noroeste 0 -- -- 74
2020-05-05 08:00:00 16.1 13 Noroeste 21 Noroeste 0 -- -- 85
2020-05-05 07:00:00 15.2 14 Noroeste 22 Noroeste 0 -- -- 87
2020-05-05 06:00:00 14.7 13 Noroeste 18 Norte 0 -- -- 87
2020-05-05 05:00:00 15.7 11 Norte 21 Norte 0 -- -- 86
2020-05-05 04:00:00 15.6 7 Norte 14 Norte 0 -- -- 86
2020-05-05 03:00:00 16.2 10 Norte 23 Norte 0 -- -- 86
2020-05-05 02:00:00 16.2 10 Noroeste 18 Noroeste 0 -- -- 86
2020-05-05 01:00:00 16.5 12 Noroeste 18 Noroeste 0 -- -- 86
2020-05-05 00:00:00 16.9 14 Noroeste 24 Noroeste 0 -- -- 87
2020-05-04 23:00:00 17.2 15 Noroeste 27 Noroeste 0 -- -- 86
2020-05-04 22:00:00 17.4 17 Noroeste 25 Noroeste 0 -- -- 81
2020-05-04 21:00:00 18 14 Noroeste 28 Noroeste 0 -- -- 78
2020-05-04 20:00:00 18.6 21 Noroeste 36 Noroeste 0 -- -- 75
2020-05-04 19:00:00 19.6 25 Noroeste 39 Noroeste 0 -- -- 73
2020-05-04 18:00:00 21 24 Noroeste 37 Noroeste 0 -- -- 70
2020-05-04 17:00:00 21.8 24 Noroeste 35 Noroeste 0 -- -- 67
2020-05-04 16:00:00 21.7 22 Oeste 35 Oeste 0 -- -- 72
2020-05-04 15:00:00 22.1 19 Oeste 27 Oeste 0 -- -- 71
2020-05-04 14:00:00 20.6 8 Sudeste 23 Sudeste 0 -- -- 78
2020-05-04 13:00:00 20.1 7 Sudeste 23 Este 0 -- -- 81
2020-05-04 12:00:00 21.1 13 Sudeste 23 Este 0 -- -- 76
2020-05-04 11:00:00 20.6 13 Sudeste 23 Sudeste 0 -- -- 79
2020-05-04 10:00:00 19.5 13 Este 19 Este 0 -- -- 86
2020-05-04 09:00:00 18.6 6 Sudeste 12 Sudeste 0 -- -- 90
2020-05-04 08:00:00 17.2 0 Calma 6 Este 0 -- -- 92
2020-05-04 07:00:00 16.5 3 Este 13 Oeste 0 -- -- 90
2020-05-04 06:00:00 17 4 Noroeste 18 Noroeste 0 -- -- 89
2020-05-04 05:00:00 16.9 12 Oeste 23 Noroeste 0 -- -- 91
2020-05-04 04:00:00 16.5 18 Oeste 27 Noroeste 0 -- -- 93
2020-05-04 03:00:00 16.4 16 Oeste 28 Oeste 0 -- -- 92
2020-05-04 02:00:00 16.5 13 Oeste 19 Oeste 0 -- -- 90
2020-05-04 01:00:00 16.6 9 Oeste 33 Oeste 0 -- -- 88
2020-05-04 00:00:00 16.6 26 Oeste 49 Oeste 0 -- -- 90
2020-05-03 23:00:00 16.8 23 Oeste 39 Oeste 0 -- -- 89
2020-05-03 22:00:00 17 12 Sudoeste 37 Oeste 0 -- -- 90
2020-05-03 21:00:00 17.5 15 Oeste 26 Oeste 0 -- -- 87
2020-05-03 20:00:00 17.9 14 Oeste 37 Oeste 0 -- -- 85
2020-05-03 19:00:00 20.6 15 Oeste 29 Oeste 0 -- -- 74
2020-05-03 18:00:00 21.8 8 Sudoeste 21 Este 0 -- -- 73
2020-05-03 17:00:00 22 13 Este 22 Sudeste 0 -- -- 74
2020-05-03 16:00:00 21.2 11 Sudeste 25 Sudeste 0 -- -- 76
2020-05-03 15:00:00 21.4 18 Sudeste 37 Sudeste 0 -- -- 74
2020-05-03 14:00:00 22.7 24 Sudeste 37 Sudeste 0 -- -- 70
2020-05-03 13:00:00 22.1 14 Sudeste 22 Este 0 -- -- 74
2020-05-03 12:00:00 22 11 Sudeste 19 Este 0 -- -- 74
2020-05-03 11:00:00 21.9 9 Este 15 Este 0 -- -- 73
2020-05-03 10:00:00 22.7 4 Sudeste 16 Oeste 0 -- -- 68
2020-05-03 09:00:00 19 14 Oeste 45 Oeste 0 -- -- 80
2020-05-03 08:00:00 19.2 2 Oeste 12 Oeste 0 -- -- 51
2020-05-03 07:00:00 15.4 11 Oeste 19 Oeste 0 -- -- 93
2020-05-03 06:00:00 15.1 3 Sudoeste 13 Noroeste 0 -- -- 95
2020-05-03 05:00:00 15.3 2 Este 11 Oeste 0 -- -- 95
2020-05-03 04:00:00 15.9 3 Sur 8 Sudeste 0 -- -- 95
2020-05-03 03:00:00 16.1 3 Este 7 Sudeste 0 -- -- 94
2020-05-03 02:00:00 16.3 4 Sur 8 Sur 0 -- -- 93
2020-05-03 01:00:00 16.4 2 Este 6 Noroeste 0 -- -- 90
2020-05-03 00:00:00 17.1 3 Sudeste 5 Noroeste 0 -- -- 88
2020-05-02 23:00:00 17.7 0 Calma 10 Noroeste 0 -- -- 85
2020-05-02 22:00:00 19.2 3 Sudeste 15 Oeste 0 -- -- 78
2020-05-02 21:00:00 18.9 2 Sudoeste 9 Noroeste 0 -- -- 82
2020-05-02 20:00:00 19.5 7 Sudeste 15 Sur 0 -- -- 78
2020-05-02 19:00:00 21.2 12 Sur 18 Sur 0 -- -- 74
2020-05-02 18:00:00 21.6 12 Sur 19 Sudeste 0 -- -- 73
2020-05-02 17:00:00 21.9 12 Sudeste 18 Este 0 -- -- 72
2020-05-02 16:00:00 22 10 Sudeste 19 Este 0 -- -- 71
2020-05-02 15:00:00 21 10 Este 22 Este 0 -- -- 74
2020-05-02 14:00:00 20.8 10 Sudeste 26 Sudeste 0 -- -- 74
2020-05-02 13:00:00 22.1 17 Sudeste 26 Este 0 -- -- 68
2020-05-02 12:00:00 21.6 8 Nordeste 18 Nordeste 0 -- -- 67
2020-05-02 11:00:00 19.7 9 Nordeste 18 Este 0 -- -- 76
2020-05-02 10:00:00 18.3 8 Nordeste 16 Nordeste 0 -- -- 85
2020-05-02 09:00:00 16.7 5 Nordeste 14 Nordeste 0 -- -- 91
2020-05-02 08:00:00 15.8 6 Nordeste 15 Nordeste 0 -- -- 92
2020-05-02 07:00:00 15.5 6 Este 14 Nordeste 0 -- -- 92
2020-05-02 06:00:00 15.3 7 Nordeste 16 Norte 0 -- -- 91
2020-05-02 05:00:00 15.4 9 Norte 21 Norte 0 -- -- 89
2020-05-02 04:00:00 15.6 10 Nordeste 25 Norte 0 -- -- 88
2020-05-02 03:00:00 15.8 12 Norte 26 Norte 0 -- -- 88
2020-05-02 02:00:00 16.1 13 Norte 28 Norte 0 -- -- 87
2020-05-02 01:00:00 16.2 12 Norte 33 Norte 0 -- -- 87
2020-05-02 00:00:00 16.2 20 Norte 32 Norte 0 -- -- 87
2020-05-01 23:00:00 16.1 14 Norte 33 Norte 0 -- -- 87
2020-05-01 22:00:00 16.4 14 Norte 34 Norte 0 -- -- 86
2020-05-01 21:00:00 16.6 18 Norte 28 Norte 0 -- -- 83
2020-05-01 20:00:00 17.4 18 Norte 31 Norte 0 -- -- 77
2020-05-01 19:00:00 19.1 17 Norte 32 Norte 0 -- -- 72
2020-05-01 18:00:00 19.7 22 Norte 33 Nordeste 0 -- -- 69
2020-05-01 17:00:00 20.5 19 Norte 34 Nordeste 0 -- -- 66
2020-05-01 16:00:00 21.3 20 Nordeste 31 Nordeste 0 -- -- 62
2020-05-01 15:00:00 20.6 17 Norte 36 Norte 0 -- -- 65
2020-05-01 14:00:00 20.3 21 Nordeste 36 Nordeste 0 -- -- 65
2020-05-01 13:00:00 19.7 19 Nordeste 36 Nordeste 0 -- -- 68
2020-05-01 12:00:00 19.1 21 Nordeste 36 Norte 0 -- -- 72
2020-05-01 11:00:00 18.9 23 Norte 40 Nordeste 0 -- -- 72
2020-05-01 10:00:00 17.9 23 Nordeste 39 Norte 0 -- -- 76
2020-05-01 09:00:00 17.5 26 Norte 39 Norte 0 -- -- 80
2020-05-01 08:00:00 16.7 15 Norte 33 Norte 0 -- -- 84
2020-05-01 07:00:00 16.3 23 Norte 37 Norte 0 -- -- 83
2020-05-01 06:00:00 16.1 21 Norte 37 Noroeste 0 -- -- 88
2020-05-01 05:00:00 16.2 19 Noroeste 35 Noroeste 0 -- -- 88
2020-05-01 04:00:00 16.2 21 Noroeste 38 Norte 0 -- -- 86
2020-05-01 03:00:00 16.2 20 Noroeste 36 Noroeste 0 -- -- 86
2020-05-01 02:00:00 16.7 20 Norte 39 Norte 0 -- -- 85
2020-05-01 01:00:00 16.5 20 Norte 40 Norte 0 -- -- 87
2020-05-01 00:00:00 16.3 20 Noroeste 37 Norte 0 -- -- 87
2020-04-30 23:00:00 16.5 27 Noroeste 43 Noroeste 0 -- -- 87
2020-04-30 22:00:00 16.6 23 Noroeste 40 Noroeste 0 -- -- 86
2020-04-30 21:00:00 16.9 22 Noroeste 39 Noroeste 0 -- -- 85
2020-04-30 20:00:00 17.2 25 Norte 44 Noroeste 0 -- -- 84
2020-04-30 19:00:00 17.6 28 Noroeste 48 Noroeste 0 -- -- 79
2020-04-30 18:00:00 18.9 24 Noroeste 46 Noroeste 0 -- -- 73
2020-04-30 17:00:00 19.9 27 Noroeste 45 Noroeste 0 -- -- 71
2020-04-30 16:00:00 20.6 31 Noroeste 48 Noroeste 0 -- -- 68
2020-04-30 15:00:00 20.8 28 Noroeste 49 Noroeste 0 -- -- 68
2020-04-30 14:00:00 20.8 30 Noroeste 47 Noroeste 0 -- -- 67
2020-04-30 13:00:00 20.5 30 Noroeste 51 Noroeste 0 -- -- 66
2020-04-30 12:00:00 19.9 31 Noroeste 46 Noroeste 0 -- -- 68
2020-04-30 11:00:00 19.4 26 Noroeste 39 Noroeste 0 -- -- 70
2020-04-30 10:00:00 18.6 20 Noroeste 45 Norte 0 -- -- 73
2020-04-30 09:00:00 17.2 20 Noroeste 34 Noroeste 0 -- -- 81
2020-04-30 08:00:00 15.9 20 Noroeste 37 Noroeste 0 -- -- 86
2020-04-30 07:00:00 15.4 19 Noroeste 40 Norte 0 -- -- 86
2020-04-30 06:00:00 15.3 23 Noroeste 39 Norte 0 -- -- 85
2020-04-30 05:00:00 15.3 21 Noroeste 36 Noroeste 0 -- -- 86
2020-04-30 04:00:00 15.3 21 Noroeste 38 Noroeste 0 -- -- 86
2020-04-30 03:00:00 15.2 22 Noroeste 45 Noroeste 0 -- -- 81
2020-04-30 02:00:00 15.3 29 Noroeste 42 Noroeste 0 -- -- 83
2020-04-30 01:00:00 15.4 22 Noroeste 39 Noroeste 0 -- -- 83
2020-04-30 00:00:00 15.8 19 Norte 36 Noroeste 0 -- -- 81
2020-04-29 23:00:00 16 18 Noroeste 38 Noroeste 0 -- -- 80
2020-04-29 22:00:00 16.1 19 Norte 42 Norte 0 -- -- 79
2020-04-29 21:00:00 16.3 24 Norte 36 Norte 0 -- -- 78
2020-04-29 20:00:00 17.1 19 Norte 33 Norte 0 -- -- 75
2020-04-29 19:00:00 17.5 24 Norte 37 Norte 0 -- -- 73
2020-04-29 18:00:00 19 23 Norte 37 Norte 0 -- -- 69
2020-04-29 17:00:00 19 22 Norte 36 Norte 0 -- -- 68
2020-04-29 16:00:00 19.4 22 Norte 34 Norte 0 -- -- 64
2020-04-29 15:00:00 19.9 19 Norte 33 Norte 0 -- -- 53
2020-04-29 14:00:00 20.5 19 Norte 31 Norte 0 -- -- 60
2020-04-29 13:00:00 19.5 19 Norte 34 Norte 0 -- -- 65
2020-04-29 12:00:00 18.3 20 Norte 33 Nordeste 0 -- -- 69
2020-04-29 11:00:00 18.1 22 Nordeste 33 Nordeste 0 -- -- 70
2020-04-29 10:00:00 18.1 23 Norte 47 Norte 0 -- -- 72
2020-04-29 09:00:00 17.2 23 Norte 33 Norte 0 -- -- 77
2020-04-29 08:00:00 15.9 18 Norte 28 Norte 0 -- -- 83
2020-04-29 07:00:00 15 15 Norte 23 Noroeste 0 -- -- 86
2020-04-29 06:00:00 14.8 13 Noroeste 20 Noroeste 0 -- -- 86
2020-04-29 05:00:00 14.8 10 Noroeste 19 Norte 0 -- -- 84
2020-04-29 04:00:00 15.2 10 Noroeste 22 Norte 0 -- -- 86
2020-04-29 03:00:00 15.4 13 Noroeste 20 Norte 0 -- -- 84
2020-04-29 02:00:00 15.7 10 Norte 23 Norte 0 -- -- 84
2020-04-29 01:00:00 16 10 Norte 23 Norte 0 -- -- 84
2020-04-29 00:00:00 15.9 15 Norte 26 Norte 0 -- -- 82
2020-04-28 23:00:00 16.2 14 Norte 24 Norte 0 -- -- 82
2020-04-28 22:00:00 16.5 17 Norte 27 Norte 0 -- -- 81
2020-04-28 21:00:00 16.6 15 Noroeste 28 Noroeste 0 -- -- 77
2020-04-28 20:00:00 17.4 17 Norte 32 Norte 0 -- -- 71
2020-04-28 19:00:00 19.4 17 Noroeste 34 Norte 0 -- -- 66
2020-04-28 18:00:00 19.4 23 Noroeste 36 Noroeste 0 -- -- 67
2020-04-28 17:00:00 19.8 25 Noroeste 35 Noroeste 0 -- -- 64
2020-04-28 16:00:00 20.4 21 Noroeste 35 Noroeste 0 -- -- 61
2020-04-28 15:00:00 20.6 19 Noroeste 35 Noroeste 0 -- -- 59
2020-04-28 14:00:00 20.7 19 Noroeste 33 Noroeste 0 -- -- 56
2020-04-28 13:00:00 20.3 21 Noroeste 33 Noroeste 0 -- -- 62
2020-04-28 12:00:00 20.3 22 Noroeste 35 Noroeste 0 -- -- 63
2020-04-28 11:00:00 18.3 15 Noroeste 36 Noroeste 0 -- -- 78
2020-04-28 10:00:00 18.2 15 Noroeste 32 Noroeste 0 -- -- 76
2020-04-28 09:00:00 17.6 22 Noroeste 32 Oeste 0 -- -- 77
2020-04-28 08:00:00 16.4 16 Noroeste 30 Noroeste 0 -- -- 84
2020-04-28 07:00:00 15.4 17 Noroeste 28 Noroeste 0 -- -- 85
2020-04-28 06:00:00 15.4 15 Noroeste 33 Noroeste 0 -- -- 83
2020-04-28 05:00:00 15.6 24 Noroeste 35 Noroeste 0 -- -- 81
2020-04-28 04:00:00 15.5 17 Noroeste 28 Oeste 0 -- -- 83
2020-04-28 03:00:00 15.7 12 Noroeste 21 Noroeste 0 -- -- 86
2020-04-28 02:00:00 15.6 13 Noroeste 23 Noroeste 0 -- -- 87
2020-04-28 01:00:00 15.9 7 Noroeste 20 Noroeste 0 -- -- 86
2020-04-28 00:00:00 15.9 8 Noroeste 17 Noroeste 0 -- -- 85